Wetterdaten: Woche 18.08.08 - 24.08.08 (KW34)
Datum Zeit Temperatur Luftfeuchte Luftdruck Niederschlag Wind Richtung Sonnenschein Solar Taupunkt Windchill Windben
18.08.2008 00:00 13.9 C 95 % 1015.0 hPa 0.0 l/m 0.3 km/h (0 Bft) O-SO 0.00 h 0 W/m 13.1 C 13.9 C 1.0 km/h (0 Bft)
18.08.2008 01:00 13.3 C 97 % 1015.2 hPa 0.0 l/m 0.2 km/h (0 Bft) O-SO 0.00 h 0 W/m 12.8 C 13.3 C 0.5 km/h (0 Bft)
18.08.2008 02:00 12.7 C 98 % 1015.2 hPa 0.0 l/m 0.1 km/h (0 Bft) O-SO 0.00 h 0 W/m 12.4 C 12.7 C 0.6 km/h (0 Bft)
18.08.2008 03:00 12.3 C 99 % 1015.3 hPa 0.0 l/m 0.1 km/h (0 Bft) O-SO 0.00 h 0 W/m 12.2 C 12.3 C 0.3 km/h (0 Bft)
18.08.2008 04:00 12.2 C 100 % 1014.9 hPa 0.0 l/m 0.0 km/h (0 Bft) N 0.00 h 0 W/m 12.2 C 12.2 C 0.1 km/h (0 Bft)
18.08.2008 05:00 12.4 C 100 % 1015.0 hPa 0.0 l/m 0.0 km/h (0 Bft) O-SO 0.00 h 0 W/m 12.4 C 12.4 C 0.1 km/h (0 Bft)
18.08.2008 06:00 12.4 C 100 % 1015.1 hPa 0.0 l/m 0.0 km/h (0 Bft) N 0.00 h 9 W/m 12.4 C 12.4 C 0.2 km/h (0 Bft)
18.08.2008 07:00 12.4 C 100 % 1015.4 hPa 0.0 l/m 0.0 km/h (0 Bft) N 0.00 h 41 W/m 12.4 C 12.4 C 0.3 km/h (0 Bft)
18.08.2008 08:00 12.7 C 100 % 1015.8 hPa 0.0 l/m 0.2 km/h (0 Bft) O 0.00 h 106 W/m 12.7 C 12.7 C 1.1 km/h (0 Bft)
18.08.2008 09:00 13.8 C 100 % 1016.1 hPa 0.0 l/m 0.8 km/h (0 Bft) O 0.33 h 263 W/m 13.8 C 13.8 C 2.3 km/h (1 Bft)
18.08.2008 10:00 17.6 C 84 % 1015.9 hPa 0.0 l/m 2.1 km/h (1 Bft) SO 0.88 h 538 W/m 14.8 C 17.6 C 4.5 km/h (1 Bft)
18.08.2008 11:00 21.0 C 67 % 1015.3 hPa 0.0 l/m 4.5 km/h (1 Bft) S-SO 1.00 h 683 W/m 14.5 C 21.0 C 9.3 km/h (2 Bft)
18.08.2008 12:00 22.7 C 62 % 1014.6 hPa 0.0 l/m 3.8 km/h (1 Bft) S-SO 1.00 h 750 W/m 15.0 C 22.7 C 7.7 km/h (2 Bft)
18.08.2008 13:00 24.5 C 56 % 1014.0 hPa 0.0 l/m 4.9 km/h (1 Bft) SW 1.00 h 780 W/m 15.2 C 24.5 C 10.1 km/h (2 Bft)
18.08.2008 14:00 25.9 C 51 % 1013.3 hPa 0.0 l/m 4.8 km/h (1 Bft) W-SW 1.00 h 757 W/m 15.1 C 25.9 C 9.5 km/h (2 Bft)
18.08.2008 15:00 26.7 C 48 % 1012.8 hPa 0.0 l/m 5.7 km/h (1 Bft) SW 1.00 h 686 W/m 14.7 C 26.7 C 11.7 km/h (2 Bft)
18.08.2008 16:00 26.8 C 46 % 1012.4 hPa 0.0 l/m 6.5 km/h (2 Bft) SW 0.92 h 558 W/m 14.0 C 26.8 C 12.5 km/h (3 Bft)
18.08.2008 17:00 27.2 C 44 % 1012.1 hPa 0.0 l/m 5.0 km/h (1 Bft) S-SW 1.00 h 436 W/m 13.9 C 27.2 C 9.5 km/h (2 Bft)
18.08.2008 18:00 26.6 C 45 % 1011.7 hPa 0.0 l/m 3.3 km/h (1 Bft) SW 0.97 h 259 W/m 13.8 C 26.6 C 7.4 km/h (2 Bft)
18.08.2008 19:00 25.6 C 48 % 1011.8 hPa 0.0 l/m 1.9 km/h (1 Bft) W-SW 0.55 h 94 W/m 13.7 C 25.6 C 4.7 km/h (1 Bft)
18.08.2008 20:00 23.0 C 59 % 1012.4 hPa 0.0 l/m 3.3 km/h (1 Bft) S 0.00 h 12 W/m 14.4 C 23.0 C 5.2 km/h (1 Bft)
18.08.2008 21:00 21.6 C 65 % 1013.0 hPa 0.0 l/m 1.4 km/h (1 Bft) S-SO 0.00 h 0 W/m 14.6 C 21.6 C 2.7 km/h (1 Bft)
18.08.2008 22:00 19.8 C 73 % 1013.5 hPa 0.0 l/m 0.9 km/h (0 Bft) S-SO 0.00 h 0 W/m 14.9 C 19.8 C 2.0 km/h (1 Bft)
18.08.2008 23:00 17.8 C 84 % 1013.8 hPa 0.0 l/m 0.1 km/h (0 Bft) SO 0.00 h 0 W/m 15.0 C 17.8 C 0.5 km/h (0 Bft)
19.08.2008 00:00 16.9 C 86 % 1014.1 hPa 0.0 l/m 0.1 km/h (0 Bft) SO 0.00 h 0 W/m 14.6 C 16.9 C 0.6 km/h (0 Bft)
19.08.2008 01:00 16.1 C 89 % 1014.2 hPa 0.0 l/m 0.0 km/h (0 Bft) N 0.00 h 0 W/m 14.4 C 16.1 C 0.1 km/h (0 Bft)
19.08.2008 02:00 15.5 C 92 % 1014.2 hPa 0.0 l/m 0.1 km/h (0 Bft) SO 0.00 h 0 W/m 14.1 C 15.5 C 0.1 km/h (0 Bft)
19.08.2008 03:00 14.9 C 95 % 1014.3 hPa 0.0 l/m 0.1 km/h (0 Bft) SO 0.00 h 0 W/m 14.0 C 14.9 C 0.5 km/h (0 Bft)
19.08.2008 04:00 14.6 C 96 % 1014.3 hPa 0.0 l/m 0.0 km/h (0 Bft) SO 0.00 h 0 W/m 14.0 C 14.6 C 0.2 km/h (0 Bft)
19.08.2008 05:00 14.1 C 97 % 1014.2 hPa 0.0 l/m 0.1 km/h (0 Bft) SO 0.00 h 0 W/m 13.6 C 14.1 C 0.3 km/h (0 Bft)
19.08.2008 06:00 13.8 C 98 % 1014.2 hPa 0.0 l/m 0.1 km/h (0 Bft) SO 0.03 h 11 W/m 13.5 C 13.8 C 0.5 km/h (0 Bft)
19.08.2008 07:00 14.0 C 99 % 1013.9 hPa 0.0 l/m 0.0 km/h (0 Bft) N 0.00 h 35 W/m 13.8 C 14.0 C 0.3 km/h (0 Bft)
19.08.2008 08:00 14.6 C 98 % 1014.1 hPa 0.0 l/m 0.1 km/h (0 Bft) SO 0.00 h 85 W/m 14.3 C 14.6 C 0.6 km/h (0 Bft)
19.08.2008 09:00 16.3 C 92 % 1014.1 hPa 0.0 l/m 0.3 km/h (0 Bft) SO 0.45 h 277 W/m 15.0 C 16.3 C 1.0 km/h (0 Bft)
19.08.2008 10:00 19.5 C 80 % 1013.8 hPa 0.0 l/m 1.0 km/h (0 Bft) SO 0.62 h 435 W/m 16.0 C 19.5 C 2.6 km/h (1 Bft)
19.08.2008 11:00 23.4 C 70 % 1012.8 hPa 0.0 l/m 2.2 km/h (1 Bft) W-NW 1.00 h 665 W/m 17.7 C 23.4 C 4.6 km/h (1 Bft)
19.08.2008 12:00 25.1 C 62 % 1012.0 hPa 0.0 l/m 3.6 km/h (1 Bft) S-SO 0.67 h 606 W/m 17.4 C 25.1 C 7.7 km/h (2 Bft)
19.08.2008 13:00 27.0 C 55 % 1011.0 hPa 0.0 l/m 6.1 km/h (2 Bft) S-SO 1.00 h 782 W/m 17.1 C 27.0 C 12.4 km/h (3 Bft)
19.08.2008 14:00 27.5 C 53 % 1010.3 hPa 0.0 l/m 6.2 km/h (2 Bft) S-SO 0.78 h 680 W/m 17.0 C 27.5 C 13.1 km/h (3 Bft)
19.08.2008 15:00 26.9 C 55 % 1010.2 hPa 0.0 l/m 13.6 km/h (3 Bft) W 0.52 h 477 W/m 16.9 C 26.9 C 21.2 km/h (4 Bft)
19.08.2008 16:00 21.0 C 79 % 1012.4 hPa 0.0 l/m 12.3 km/h (3 Bft) W 0.00 h 163 W/m 17.2 C 21.0 C 20.3 km/h (4 Bft)
19.08.2008 17:00 20.0 C 74 % 1013.1 hPa 0.0 l/m 15.9 km/h (3 Bft) W 0.10 h 137 W/m 15.3 C 20.0 C 26.1 km/h (4 Bft)
19.08.2008 18:00 18.1 C 82 % 1013.4 hPa 0.8 l/m 12.8 km/h (3 Bft) W 0.00 h 22 W/m 15.0 C 18.1 C 20.6 km/h (4 Bft)
19.08.2008 19:00 16.6 C 94 % 1013.5 hPa 1.0 l/m 4.2 km/h (1 Bft) W 0.00 h 15 W/m 15.7 C 16.6 C 7.5 km/h (2 Bft)
19.08.2008 20:00 16.4 C 97 % 1014.9 hPa 1.4 l/m 1.9 km/h (1 Bft) S 0.00 h 0 W/m 15.9 C 16.4 C 4.5 km/h (1 Bft)
19.08.2008 21:00 16.7 C 98 % 1014.9 hPa 1.0 l/m 1.0 km/h (0 Bft) SO 0.00 h 0 W/m 16.3 C 16.7 C 2.9 km/h (1 Bft)
19.08.2008 22:00 16.7 C 99 % 1014.9 hPa 0.4 l/m 0.9 km/h (0 Bft) W-SW 0.00 h 0 W/m 16.6 C 16.7 C 2.6 km/h (1 Bft)
19.08.2008 23:00 16.7 C 100 % 1014.9 hPa 0.0 l/m 0.1 km/h (0 Bft) W 0.00 h 0 W/m 16.7 C 16.7 C 0.7 km/h (0 Bft)
20.08.2008 00:00 16.5 C 100 % 1014.8 hPa 0.0 l/m 0.1 km/h (0 Bft) SW 0.00 h 0 W/m 16.5 C 16.5 C 0.6 km/h (0 Bft)
20.08.2008 01:00 16.4 C 99 % 1014.7 hPa 0.0 l/m 0.0 km/h (0 Bft) N 0.00 h 0 W/m 16.2 C 16.4 C 0.1 km/h (0 Bft)
20.08.2008 02:00 15.8 C 99 % 1015.0 hPa 0.0 l/m 0.3 km/h (0 Bft) SW 0.00 h 0 W/m 15.7 C 15.8 C 1.1 km/h (1 Bft)
20.08.2008 03:00 15.4 C 97 % 1015.4 hPa 0.0 l/m 0.0 km/h (0 Bft) W-SW 0.00 h 0 W/m 15.0 C 15.4 C 0.2 km/h (0 Bft)
20.08.2008 04:00 15.3 C 96 % 1015.6 hPa 0.0 l/m 0.1 km/h (0 Bft) SW 0.00 h 0 W/m 14.7 C 15.3 C 0.5 km/h (0 Bft)
20.08.2008 05:00 15.0 C 97 % 1015.7 hPa 0.0 l/m 0.1 km/h (0 Bft) SW 0.00 h 0 W/m 14.6 C 15.0 C 0.4 km/h (0 Bft)
20.08.2008 06:00 15.1 C 98 % 1016.0 hPa 0.0 l/m 0.1 km/h (0 Bft) SW 0.00 h 0 W/m 14.7 C 15.1 C 0.7 km/h (0 Bft)
20.08.2008 07:00 15.1 C 97 % 1016.5 hPa 0.0 l/m 1.4 km/h (1 Bft) W 0.00 h 18 W/m 14.6 C 15.1 C 3.0 km/h (1 Bft)
20.08.2008 08:00 14.8 C 95 % 1016.9 hPa 0.0 l/m 6.9 km/h (2 Bft) W 0.00 h 58 W/m 14.0 C 14.8 C 11.5 km/h (2 Bft)
20.08.2008 09:00 15.9 C 90 % 1017.1 hPa 0.0 l/m 7.1 km/h (2 Bft) W 0.37 h 299 W/m 14.2 C 15.9 C 11.4 km/h (2 Bft)
20.08.2008 10:00 17.8 C 79 % 1017.3 hPa 0.0 l/m 8.5 km/h (2 Bft) W 0.80 h 569 W/m 14.1 C 17.8 C 14.1 km/h (3 Bft)
20.08.2008 11:00 18.3 C 73 % 1017.8 hPa 0.0 l/m 8.6 km/h (2 Bft) W 0.58 h 502 W/m 13.4 C 18.3 C 14.0 km/h (3 Bft)
20.08.2008 12:00 18.6 C 70 % 1017.9 hPa 0.0 l/m 8.2 km/h (2 Bft) W 0.20 h 369 W/m 12.9 C 18.6 C 13.1 km/h (3 Bft)
20.08.2008 13:00 19.3 C 66 % 1017.6 hPa 0.0 l/m 7.1 km/h (2 Bft) W 0.05 h 345 W/m 12.8 C 19.3 C 11.6 km/h (2 Bft)
20.08.2008 14:00 19.2 C 68 % 1017.8 hPa 0.0 l/m 6.0 km/h (2 Bft) W 0.08 h 285 W/m 13.1 C 19.2 C 9.5 km/h (2 Bft)
20.08.2008 15:00 19.9 C 62 % 1017.9 hPa 0.0 l/m 8.3 km/h (2 Bft) W 0.38 h 371 W/m 12.5 C 19.9 C 13.8 km/h (3 Bft)
20.08.2008 16:00 21.1 C 58 % 1017.9 hPa 0.0 l/m 11.0 km/h (2 Bft) W 0.72 h 542 W/m 12.6 C 21.1 C 17.6 km/h (3 Bft)
20.08.2008 17:00 20.7 C 58 % 1018.4 hPa 0.0 l/m 11.7 km/h (2 Bft) W 0.85 h 411 W/m 12.1 C 20.7 C 18.6 km/h (3 Bft)
20.08.2008 18:00 19.9 C 60 % 1018.4 hPa 0.0 l/m 9.6 km/h (2 Bft) W-NW 0.52 h 179 W/m 11.8 C 19.9 C 15.1 km/h (3 Bft)
20.08.2008 19:00 19.2 C 62 % 1018.5 hPa 0.0 l/m 7.7 km/h (2 Bft) W 0.37 h 80 W/m 11.6 C 19.2 C 12.2 km/h (2 Bft)
20.08.2008 20:00 17.8 C 68 % 1019.0 hPa 0.0 l/m 1.2 km/h (1 Bft) W-NW 0.00 h 9 W/m 11.8 C 17.8 C 2.7 km/h (1 Bft)
20.08.2008 21:00 17.2 C 70 % 1019.3 hPa 0.0 l/m 0.1 km/h (0 Bft) SW 0.00 h 0 W/m 11.8 C 17.2 C 0.7 km/h (0 Bft)
20.08.2008 22:00 16.4 C 79 % 1019.7 hPa 0.0 l/m 1.8 km/h (1 Bft) O-SO 0.00 h 0 W/m 12.7 C 16.4 C 2.7 km/h (1 Bft)
20.08.2008 23:00 15.9 C 82 % 1020.0 hPa 0.0 l/m 0.3 km/h (0 Bft) O-SO 0.00 h 0 W/m 12.9 C 15.9 C 1.1 km/h (1 Bft)
21.08.2008 00:00 15.3 C 85 % 1020.1 hPa 0.0 l/m 2.4 km/h (1 Bft) O-SO 0.00 h 0 W/m 12.7 C 15.3 C 3.7 km/h (1 Bft)
21.08.2008 01:00 14.7 C 87 % 1020.1 hPa 0.0 l/m 2.7 km/h (1 Bft) O-SO 0.00 h 0 W/m 12.6 C 14.7 C 3.8 km/h (1 Bft)
21.08.2008 02:00 13.9 C 90 % 1020.1 hPa 0.0 l/m 1.7 km/h (1 Bft) O-SO 0.00 h 0 W/m 12.2 C 13.9 C 3.3 km/h (1 Bft)
21.08.2008 03:00 13.5 C 91 % 1020.0 hPa 0.0 l/m 1.1 km/h (1 Bft) O-SO 0.00 h 0 W/m 12.1 C 13.5 C 2.2 km/h (1 Bft)
21.08.2008 04:00 13.5 C 92 % 1019.7 hPa 0.0 l/m 0.2 km/h (0 Bft) O-SO 0.00 h 0 W/m 12.2 C 13.5 C 0.7 km/h (0 Bft)
21.08.2008 05:00 13.0 C 94 % 1019.6 hPa 0.0 l/m 0.1 km/h (0 Bft) O-SO 0.00 h 0 W/m 12.1 C 13.0 C 0.5 km/h (0 Bft)
21.08.2008 06:00 12.6 C 96 % 1019.7 hPa 0.0 l/m 0.4 km/h (0 Bft) O-SO 0.05 h 14 W/m 12.0 C 12.6 C 1.2 km/h (1 Bft)
21.08.2008 07:00 13.0 C 94 % 1020.0 hPa 0.0 l/m 0.1 km/h (0 Bft) O-SO 0.00 h 57 W/m 12.0 C 13.0 C 0.5 km/h (0 Bft)
21.08.2008 08:00 13.8 C 91 % 1020.4 hPa 0.0 l/m 0.1 km/h (0 Bft) O-SO 0.00 h 130 W/m 12.4 C 13.8 C 0.5 km/h (0 Bft)
21.08.2008 09:00 15.9 C 80 % 1020.3 hPa 0.0 l/m 0.5 km/h (0 Bft) S 0.75 h 322 W/m 12.5 C 15.9 C 1.7 km/h (1 Bft)
21.08.2008 10:00 18.2 C 73 % 1020.1 hPa 0.0 l/m 1.2 km/h (1 Bft) W-NW 1.00 h 545 W/m 13.2 C 18.2 C 3.0 km/h (1 Bft)
21.08.2008 11:00 20.1 C 62 % 1019.8 hPa 0.0 l/m 1.1 km/h (1 Bft) W 1.00 h 675 W/m 12.6 C 20.1 C 2.8 km/h (1 Bft)
21.08.2008 12:00 21.4 C 55 % 1019.2 hPa 0.0 l/m 1.9 km/h (1 Bft) NW 1.00 h 760 W/m 12.1 C 21.4 C 4.2 km/h (1 Bft)
21.08.2008 13:00 22.1 C 55 % 1018.7 hPa 0.0 l/m 2.9 km/h (1 Bft) NW 0.68 h 636 W/m 12.7 C 22.1 C 5.0 km/h (1 Bft)
21.08.2008 14:00 23.3 C 51 % 1018.4 hPa 0.0 l/m 4.0 km/h (1 Bft) W-NW 1.00 h 802 W/m 12.7 C 23.3 C 6.6 km/h (2 Bft)
21.08.2008 15:00 23.8 C 48 % 1018.2 hPa 0.0 l/m 3.9 km/h (1 Bft) W 1.00 h 679 W/m 12.2 C 23.8 C 6.6 km/h (2 Bft)
21.08.2008 16:00 24.1 C 47 % 1017.9 hPa 0.0 l/m 7.4 km/h (2 Bft) W 1.00 h 561 W/m 12.2 C 24.1 C 11.9 km/h (2 Bft)
21.08.2008 17:00 23.9 C 47 % 1017.8 hPa 0.0 l/m 8.2 km/h (2 Bft) W 1.00 h 425 W/m 12.0 C 23.9 C 13.1 km/h (3 Bft)
21.08.2008 18:00 23.3 C 49 % 1017.8 hPa 0.0 l/m 6.9 km/h (2 Bft) W-NW 1.00 h 251 W/m 11.9 C 23.3 C 10.8 km/h (2 Bft)
21.08.2008 19:00 22.0 C 54 % 1017.9 hPa 0.0 l/m 3.7 km/h (1 Bft) W 0.40 h 83 W/m 12.2 C 22.0 C 6.2 km/h (2 Bft)
21.08.2008 20:00 19.6 C 62 % 1018.3 hPa 0.0 l/m 0.7 km/h (0 Bft) W-NW 0.03 h 12 W/m 12.0 C 19.6 C 1.6 km/h (1 Bft)
21.08.2008 21:00 17.3 C 72 % 1018.7 hPa 0.0 l/m 2.1 km/h (1 Bft) O-SO 0.00 h 0 W/m 12.3 C 17.3 C 3.1 km/h (1 Bft)
21.08.2008 22:00 15.5 C 81 % 1018.9 hPa 0.0 l/m 2.0 km/h (1 Bft) O-SO 0.00 h 0 W/m 12.2 C 15.5 C 3.4 km/h (1 Bft)
21.08.2008 23:00 14.5 C 85 % 1018.9 hPa 0.0 l/m 1.4 km/h (1 Bft) O-SO 0.00 h 0 W/m 11.9 C 14.5 C 2.3 km/h (1 Bft)
22.08.2008 00:00 13.7 C 87 % 1018.6 hPa 0.0 l/m 0.9 km/h (0 Bft) O 0.00 h 0 W/m 11.7 C 13.7 C 2.1 km/h (1 Bft)
22.08.2008 01:00 12.9 C 91 % 1018.4 hPa 0.0 l/m 1.0 km/h (0 Bft) O 0.00 h 0 W/m 11.4 C 12.9 C 1.9 km/h (1 Bft)
22.08.2008 02:00 12.4 C 93 % 1018.0 hPa 0.0 l/m 1.6 km/h (1 Bft) O-SO 0.00 h 0 W/m 11.3 C 12.4 C 2.6 km/h (1 Bft)
22.08.2008 03:00 12.0 C 94 % 1017.4 hPa 0.0 l/m 0.7 km/h (0 Bft) O-SO 0.00 h 0 W/m 11.2 C 12.0 C 1.4 km/h (1 Bft)
22.08.2008 04:00 11.6 C 96 % 1017.0 hPa 0.0 l/m 0.4 km/h (0 Bft) O-SO 0.00 h 0 W/m 10.9 C 11.6 C 1.2 km/h (1 Bft)
22.08.2008 05:00 11.3 C 96 % 1016.7 hPa 0.0 l/m 2.0 km/h (1 Bft) O-SO 0.00 h 0 W/m 10.7 C 11.3 C 3.2 km/h (1 Bft)
22.08.2008 06:00 10.9 C 97 % 1016.5 hPa 0.0 l/m 0.8 km/h (0 Bft) O-SO 0.02 h 12 W/m 10.4 C 10.9 C 1.4 km/h (1 Bft)
22.08.2008 07:00 11.1 C 97 % 1016.2 hPa 0.0 l/m 0.6 km/h (0 Bft) O-SO 0.00 h 45 W/m 10.7 C 11.1 C 1.0 km/h (0 Bft)
22.08.2008 08:00 13.2 C 92 % 1015.8 hPa 0.0 l/m 0.0 km/h (0 Bft) O-SO 0.60 h 187 W/m 11.9 C 13.2 C 0.7 km/h (0 Bft)
22.08.2008 09:00 16.0 C 80 % 1015.4 hPa 0.0 l/m 0.8 km/h (0 Bft) O-SO 1.00 h 402 W/m 12.6 C 16.0 C 2.0 km/h (1 Bft)
22.08.2008 10:00 18.4 C 74 % 1014.7 hPa 0.0 l/m 1.0 km/h (0 Bft) W-SW 0.83 h 473 W/m 13.6 C 18.4 C 2.7 km/h (1 Bft)
22.08.2008 11:00 19.4 C 72 % 1014.0 hPa 0.0 l/m 1.2 km/h (1 Bft) W-NW 0.50 h 419 W/m 14.2 C 19.4 C 2.9 km/h (1 Bft)
22.08.2008 12:00 20.3 C 71 % 1013.3 hPa 0.0 l/m 1.1 km/h (0 Bft) W-NW 0.22 h 368 W/m 14.9 C 20.3 C 2.7 km/h (1 Bft)
22.08.2008 13:00 20.1 C 74 % 1013.2 hPa 0.0 l/m 1.2 km/h (1 Bft) W 0.00 h 228 W/m 15.3 C 20.1 C 3.2 km/h (1 Bft)
22.08.2008 14:00 20.2 C 75 % 1013.2 hPa 0.0 l/m 3.6 km/h (1 Bft) W 0.00 h 221 W/m 15.6 C 20.2 C 6.7 km/h (2 Bft)
22.08.2008 15:00 18.4 C 74 % 1013.9 hPa 0.0 l/m 13.0 km/h (3 Bft) W 0.00 h 61 W/m 13.7 C 18.4 C 20.9 km/h (4 Bft)
22.08.2008 16:00 17.0 C 88 % 1013.9 hPa 0.8 l/m 2.9 km/h (1 Bft) W 0.00 h 95 W/m 15.0 C 17.0 C 4.9 km/h (1 Bft)
22.08.2008 17:00 17.0 C 91 % 1013.3 hPa 0.0 l/m 0.8 km/h (0 Bft) S-SO 0.22 h 205 W/m 15.5 C 17.0 C 2.3 km/h (1 Bft)
22.08.2008 18:00 17.5 C 87 % 1013.0 hPa 0.0 l/m 1.0 km/h (0 Bft) SO 0.20 h 125 W/m 15.3 C 17.5 C 3.0 km/h (1 Bft)
22.08.2008 19:00 17.1 C 90 % 1013.0 hPa 0.0 l/m 0.3 km/h (0 Bft) SW 0.07 h 33 W/m 15.5 C 17.1 C 1.3 km/h (1 Bft)
22.08.2008 20:00 16.8 C 89 % 1013.2 hPa 0.4 l/m 8.4 km/h (2 Bft) W-NW 0.00 h 9 W/m 14.9 C 16.8 C 13.5 km/h (3 Bft)
22.08.2008 21:00 15.3 C 95 % 1014.0 hPa 0.8 l/m 4.7 km/h (1 Bft) W-NW 0.00 h 0 W/m 14.5 C 15.3 C 8.4 km/h (2 Bft)
22.08.2008 22:00 14.8 C 93 % 1014.3 hPa 0.0 l/m 4.1 km/h (1 Bft) S 0.00 h 0 W/m 13.6 C 14.8 C 8.3 km/h (2 Bft)
22.08.2008 23:00 14.8 C 90 % 1015.1 hPa 0.0 l/m 4.6 km/h (1 Bft) S-SO 0.00 h 0 W/m 13.1 C 14.8 C 8.8 km/h (2 Bft)
23.08.2008 00:00 14.5 C 90 % 1015.6 hPa 0.0 l/m 2.8 km/h (1 Bft) W-SW 0.00 h 0 W/m 13.0 C 14.5 C 6.4 km/h (2 Bft)
23.08.2008 01:00 14.3 C 91 % 1015.6 hPa 0.4 l/m 3.0 km/h (1 Bft) W 0.00 h 0 W/m 12.9 C 14.3 C 6.1 km/h (2 Bft)
23.08.2008 02:00 14.2 C 94 % 1015.5 hPa 0.2 l/m 1.4 km/h (1 Bft) S-SW 0.00 h 0 W/m 13.1 C 14.2 C 3.8 km/h (1 Bft)
23.08.2008 03:00 13.7 C 96 % 1015.6 hPa 0.2 l/m 3.4 km/h (1 Bft) W 0.00 h 0 W/m 13.1 C 13.7 C 6.6 km/h (2 Bft)
23.08.2008 04:00 13.8 C 95 % 1015.4 hPa 0.0 l/m 1.7 km/h (1 Bft) S-SO 0.00 h 0 W/m 13.1 C 13.8 C 3.8 km/h (1 Bft)
23.08.2008 05:00 13.8 C 95 % 1015.3 hPa 0.2 l/m 1.7 km/h (1 Bft) SO 0.00 h 0 W/m 13.1 C 13.8 C 3.4 km/h (1 Bft)
23.08.2008 06:00 13.8 C 94 % 1015.2 hPa 0.0 l/m 1.2 km/h (1 Bft) SO 0.00 h 5 W/m 12.9 C 13.8 C 2.8 km/h (1 Bft)
23.08.2008 07:00 13.9 C 95 % 1015.4 hPa 0.2 l/m 0.1 km/h (0 Bft) S-SW 0.00 h 21 W/m 13.1 C 13.9 C 0.6 km/h (0 Bft)
23.08.2008 08:00 14.5 C 95 % 1015.2 hPa 0.0 l/m 0.3 km/h (0 Bft) S 0.00 h 85 W/m 13.7 C 14.5 C 1.1 km/h (0 Bft)
23.08.2008 09:00 14.9 C 94 % 1015.1 hPa 0.0 l/m 0.4 km/h (0 Bft) S-SW 0.00 h 105 W/m 13.9 C 14.9 C 1.7 km/h (1 Bft)
23.08.2008 10:00 14.8 C 95 % 1015.1 hPa 0.2 l/m 1.7 km/h (1 Bft) W 0.00 h 97 W/m 14.0 C 14.8 C 3.9 km/h (1 Bft)
23.08.2008 11:00 14.6 C 96 % 1015.2 hPa 0.8 l/m 2.2 km/h (1 Bft) W 0.00 h 158 W/m 14.0 C 14.6 C 4.6 km/h (1 Bft)
23.08.2008 12:00 15.1 C 95 % 1015.0 hPa 0.2 l/m 2.7 km/h (1 Bft) W-SW 0.00 h 181 W/m 14.3 C 15.1 C 5.6 km/h (1 Bft)
23.08.2008 13:00 15.7 C 94 % 1014.7 hPa 0.0 l/m 2.6 km/h (1 Bft) W-SW 0.00 h 297 W/m 14.8 C 15.7 C 5.2 km/h (1 Bft)
23.08.2008 14:00 16.4 C 88 % 1014.1 hPa 0.0 l/m 3.4 km/h (1 Bft) W 0.00 h 284 W/m 14.4 C 16.4 C 6.4 km/h (2 Bft)
23.08.2008 15:00 17.9 C 81 % 1013.7 hPa 0.0 l/m 3.4 km/h (1 Bft) W 0.30 h 429 W/m 14.5 C 17.9 C 6.9 km/h (2 Bft)
23.08.2008 16:00 16.0 C 82 % 1013.9 hPa 0.6 l/m 9.3 km/h (2 Bft) W-NW 0.10 h 172 W/m 12.9 C 16.0 C 14.8 km/h (3 Bft)
23.08.2008 17:00 15.5 C 86 % 1014.0 hPa 0.0 l/m 5.7 km/h (1 Bft) W-NW 0.10 h 186 W/m 13.2 C 15.5 C 9.4 km/h (2 Bft)
23.08.2008 18:00 16.4 C 80 % 1013.7 hPa 0.0 l/m 8.0 km/h (2 Bft) W 0.80 h 237 W/m 12.9 C 16.4 C 13.2 km/h (3 Bft)
23.08.2008 19:00 16.0 C 78 % 1014.0 hPa 0.0 l/m 6.0 km/h (2 Bft) W 0.40 h 81 W/m 12.1 C 16.0 C 9.9 km/h (2 Bft)
23.08.2008 20:00 14.7 C 80 % 1014.5 hPa 0.0 l/m 3.7 km/h (1 Bft) W 0.03 h 10 W/m 11.2 C 14.7 C 7.0 km/h (2 Bft)
23.08.2008 21:00 13.5 C 85 % 1015.8 hPa 0.8 l/m 2.9 km/h (1 Bft) N-NW 0.00 h 0 W/m 11.0 C 13.5 C 5.4 km/h (1 Bft)
23.08.2008 22:00 12.6 C 93 % 1016.4 hPa 0.8 l/m 1.8 km/h (1 Bft) O 0.00 h 0 W/m 11.5 C 12.6 C 3.4 km/h (1 Bft)
23.08.2008 23:00 12.2 C 96 % 1016.5 hPa 0.2 l/m 0.6 km/h (0 Bft) SO 0.00 h 0 W/m 11.5 C 12.2 C 1.7 km/h (1 Bft)
24.08.2008 00:00 11.6 C 98 % 1017.0 hPa 0.0 l/m 0.3 km/h (0 Bft) SO 0.00 h 0 W/m 11.2 C 11.6 C 1.1 km/h (1 Bft)
24.08.2008 01:00 11.1 C 99 % 1017.0 hPa 0.0 l/m 0.4 km/h (0 Bft) SO 0.00 h 0 W/m 10.9 C 11.1 C 0.8 km/h (0 Bft)
24.08.2008 02:00 10.8 C 100 % 1016.7 hPa 0.0 l/m 0.4 km/h (0 Bft) SO 0.00 h 0 W/m 10.7 C 10.8 C 1.1 km/h (0 Bft)
24.08.2008 03:00 10.8 C 100 % 1016.2 hPa 0.0 l/m 1.3 km/h (1 Bft) SO 0.00 h 0 W/m 10.8 C 10.8 C 2.8 km/h (1 Bft)
24.08.2008 04:00 11.1 C 100 % 1016.0 hPa 0.0 l/m 0.4 km/h (0 Bft) O-SO 0.00 h 0 W/m 11.1 C 11.1 C 1.6 km/h (1 Bft)
24.08.2008 05:00 11.2 C 100 % 1015.8 hPa 0.0 l/m 0.0 km/h (0 Bft) N 0.00 h 0 W/m 11.2 C 11.2 C 0.2 km/h (0 Bft)
24.08.2008 06:00 11.2 C 100 % 1015.8 hPa 0.0 l/m 0.2 km/h (0 Bft) O-SO 0.00 h 5 W/m 11.2 C 11.2 C 0.9 km/h (0 Bft)
24.08.2008 07:00 10.9 C 100 % 1016.2 hPa 0.0 l/m 1.0 km/h (0 Bft) W-NW 0.00 h 17 W/m 10.9 C 10.9 C 3.0 km/h (1 Bft)
24.08.2008 08:00 11.0 C 100 % 1016.5 hPa 0.0 l/m 0.6 km/h (0 Bft) W-NW 0.00 h 43 W/m 11.0 C 11.0 C 1.9 km/h (1 Bft)
24.08.2008 09:00 11.4 C 100 % 1017.0 hPa 0.0 l/m 0.2 km/h (0 Bft) W-NW 0.00 h 89 W/m 11.4 C 11.4 C 0.9 km/h (0 Bft)
24.08.2008 10:00 12.1 C 98 % 1017.0 hPa 0.0 l/m 1.6 km/h (1 Bft) W-SW 0.00 h 200 W/m 11.9 C 12.1 C 3.5 km/h (1 Bft)
24.08.2008 11:00 13.4 C 93 % 1016.7 hPa 0.0 l/m 2.0 km/h (1 Bft) W 0.02 h 305 W/m 12.4 C 13.4 C 4.1 km/h (1 Bft)
24.08.2008 12:00 15.7 C 84 % 1016.3 hPa 0.0 l/m 2.8 km/h (1 Bft) W 0.93 h 694 W/m 13.0 C 15.7 C 5.1 km/h (1 Bft)
24.08.2008 13:00 18.2 C 67 % 1015.5 hPa 0.0 l/m 1.5 km/h (1 Bft) W 1.00 h 778 W/m 11.9 C 18.2 C 3.7 km/h (1 Bft)
24.08.2008 14:00 20.0 C 52 % 1014.8 hPa 0.0 l/m 2.4 km/h (1 Bft) W 1.00 h 757 W/m 9.7 C 20.0 C 5.0 km/h (1 Bft)
24.08.2008 15:00 21.0 C 50 % 1014.4 hPa 0.0 l/m 2.1 km/h (1 Bft) W 1.00 h 679 W/m 10.1 C 21.0 C 4.2 km/h (1 Bft)
24.08.2008 16:00 21.5 C 49 % 1014.1 hPa 0.0 l/m 2.0 km/h (1 Bft) W 1.00 h 545 W/m 10.3 C 21.5 C 4.0 km/h (1 Bft)
24.08.2008 17:00 21.6 C 48 % 1013.8 hPa 0.0 l/m 1.9 km/h (1 Bft) W-NW 1.00 h 417 W/m 10.2 C 21.6 C 4.2 km/h (1 Bft)
24.08.2008 18:00 21.3 C 52 % 1013.8 hPa 0.0 l/m 1.4 km/h (1 Bft) W 1.00 h 242 W/m 10.9 C 21.3 C 3.4 km/h (1 Bft)
24.08.2008 19:00 19.9 C 61 % 1013.9 hPa 0.0 l/m 0.3 km/h (0 Bft) W 0.28 h 65 W/m 12.0 C 19.9 C 1.4 km/h (1 Bft)
24.08.2008 20:00 16.6 C 75 % 1014.6 hPa 0.0 l/m 4.1 km/h (1 Bft) O-SO 0.00 h 9 W/m 12.1 C 16.6 C 5.5 km/h (1 Bft)
24.08.2008 21:00 15.1 C 81 % 1015.4 hPa 0.0 l/m 2.0 km/h (1 Bft) O-SO 0.00 h 0 W/m 11.8 C 15.1 C 3.5 km/h (1 Bft)
24.08.2008 22:00 14.1 C 86 % 1015.8 hPa 0.0 l/m 1.2 km/h (1 Bft) O-SO 0.00 h 0 W/m 11.8 C 14.1 C 2.1 km/h (1 Bft)
24.08.2008 23:00 13.6 C 87 % 1016.1 hPa 0.0 l/m 2.6 km/h (1 Bft) O-SO 0.00 h 0 W/m 11.5 C 13.6 C 3.9 km/h (1 Bft)
Min-Datum _ 22.08.08 18.08.08 19.08.08 - 18.08.08 - - - 24.08.08 22.08.08 18.08.08
_ Min-Zeit 06:31 16:50 15:30 - 00:00 - - - 16:31 06:31 00:01
Minimum _ 10.6 C 41 % 1010.0 hPa - 0.0 km/h (0 Bft) - - - 7.9 C 10.6 C 0.0 km/h (0 Bft)
Max-Datum _ 19.08.08 18.08.08 21.08.08 19.08.08 19.08.08 - 18.08.08 20.08.08 19.08.08 19.08.08 19.08.08
_ Max-Zeit 14:26 03:44 08:15 20:00 15:56 - 09:27 11:50 11:50 14:26 15:55
Maximum _ 28.0 C 100 % 1020.5 hPa 1.4 l/m 46.9 km/h
W (6 Bft)
- 0.02 h 984 W/m 19.3 C 28.0 C 69.5 km/h
W (8 Bft)
Durchschnitt _ 16.8 C 82 % 1015.7 hPa #11.4 l/m 2.7 km/h (1 Bft) W #42:16 h 295 W/m 13.2 C 16.8 C 5.0 km/h (1 Bft)
© Kaiko 2008